sensor_id;sensor_type;location;lat;lon;timestamp;pressure;altitude;pressure_sealevel;temperature;humidity
72395;BME280;60384;48.152;11.614;2023-02-12T00:00:42;97507.91;;;6.14;62.83
72395;BME280;60384;48.152;11.614;2023-02-12T00:03:45;97509.75;;;6.13;62.67
72395;BME280;60384;48.152;11.614;2023-02-12T00:06:47;97508.38;;;6.11;63.11
72395;BME280;60384;48.152;11.614;2023-02-12T00:09:49;97508.06;;;6.07;62.81
72395;BME280;60384;48.152;11.614;2023-02-12T00:12:52;97499.31;;;6.07;63.17
72395;BME280;60384;48.152;11.614;2023-02-12T00:15:56;97507.84;;;6.09;63.18
72395;BME280;60384;48.152;11.614;2023-02-12T00:18:58;97501.16;;;6.06;62.32
72395;BME280;60384;48.152;11.614;2023-02-12T00:22:00;97488.63;;;6.02;63.11
72395;BME280;60384;48.152;11.614;2023-02-12T00:25:02;97490.94;;;5.98;62.56
72395;BME280;60384;48.152;11.614;2023-02-12T00:28:04;97501.81;;;5.97;62.86
72395;BME280;60384;48.152;11.614;2023-02-12T00:31:08;97502.03;;;5.95;63.00
72395;BME280;60384;48.152;11.614;2023-02-12T00:34:11;97496.16;;;5.93;62.72
72395;BME280;60384;48.152;11.614;2023-02-12T00:37:14;97501.97;;;5.90;63.31
72395;BME280;60384;48.152;11.614;2023-02-12T00:40:17;97500.94;;;5.91;62.92
72395;BME280;60384;48.152;11.614;2023-02-12T00:43:18;97499.09;;;5.92;63.08
72395;BME280;60384;48.152;11.614;2023-02-12T00:46:22;97496.91;;;5.89;63.01
72395;BME280;60384;48.152;11.614;2023-02-12T00:49:24;97491.25;;;5.85;62.84
72395;BME280;60384;48.152;11.614;2023-02-12T00:52:26;97502.09;;;5.83;63.15
72395;BME280;60384;48.152;11.614;2023-02-12T00:55:28;97509.00;;;5.85;62.74
72395;BME280;60384;48.152;11.614;2023-02-12T00:58:30;97510.41;;;5.87;63.01
72395;BME280;60384;48.152;11.614;2023-02-12T01:01:34;97519.72;;;5.90;62.98
72395;BME280;60384;48.152;11.614;2023-02-12T01:04:37;97513.94;;;5.93;63.09
72395;BME280;60384;48.152;11.614;2023-02-12T01:07:39;97510.25;;;5.94;62.90
72395;BME280;60384;48.152;11.614;2023-02-12T01:10:41;97507.59;;;5.94;62.84
72395;BME280;60384;48.152;11.614;2023-02-12T01:13:43;97503.91;;;5.95;62.97
72395;BME280;60384;48.152;11.614;2023-02-12T01:16:47;97500.19;;;5.96;62.74
72395;BME280;60384;48.152;11.614;2023-02-12T01:19:48;97495.72;;;5.96;62.72
72395;BME280;60384;48.152;11.614;2023-02-12T01:22:50;97494.66;;;5.97;62.84
72395;BME280;60384;48.152;11.614;2023-02-12T01:25:53;97507.13;;;5.97;62.75
72395;BME280;60384;48.152;11.614;2023-02-12T01:28:56;97502.84;;;5.96;62.88
72395;BME280;60384;48.152;11.614;2023-02-12T01:31:59;97508.97;;;5.96;63.21
72395;BME280;60384;48.152;11.614;2023-02-12T01:35:02;97514.81;;;5.98;63.25
72395;BME280;60384;48.152;11.614;2023-02-12T01:38:04;97519.88;;;6.00;62.92
72395;BME280;60384;48.152;11.614;2023-02-12T01:41:07;97518.03;;;6.00;63.16
72395;BME280;60384;48.152;11.614;2023-02-12T01:44:17;97517.00;;;6.01;62.97
72395;BME280;60384;48.152;11.614;2023-02-12T01:47:21;97518.63;;;6.02;62.93
72395;BME280;60384;48.152;11.614;2023-02-12T01:50:24;97512.28;;;6.03;62.34
72395;BME280;60384;48.152;11.614;2023-02-12T01:53:30;97510.09;;;6.00;62.53
72395;BME280;60384;48.152;11.614;2023-02-12T01:56:34;97506.09;;;5.98;63.06
72395;BME280;60384;48.152;11.614;2023-02-12T01:59:36;97508.16;;;5.96;62.96
72395;BME280;60384;48.152;11.614;2023-02-12T02:02:42;97504.69;;;5.95;62.80
72395;BME280;60384;48.152;11.614;2023-02-12T02:05:53;97511.84;;;5.95;62.79
72395;BME280;60384;48.152;11.614;2023-02-12T02:08:56;97502.22;;;5.89;62.67
72395;BME280;60384;48.152;11.614;2023-02-12T02:11:58;97506.13;;;5.86;62.91
72395;BME280;60384;48.152;11.614;2023-02-12T02:15:18;97503.72;;;5.85;63.25
72395;BME280;60384;48.152;11.614;2023-02-12T02:18:23;97492.28;;;5.84;63.27
72395;BME280;60384;48.152;11.614;2023-02-12T02:21:50;97492.88;;;5.86;63.05
72395;BME280;60384;48.152;11.614;2023-02-12T02:28:54;97490.56;;;5.90;63.24
72395;BME280;60384;48.152;11.614;2023-02-12T02:32:02;97491.59;;;5.89;62.76
72395;BME280;60384;48.152;11.614;2023-02-12T02:35:10;97483.41;;;5.90;62.80
72395;BME280;60384;48.152;11.614;2023-02-12T02:38:22;97479.16;;;5.89;63.25
72395;BME280;60384;48.152;11.614;2023-02-12T02:41:27;97478.00;;;5.85;62.93
72395;BME280;60384;48.152;11.614;2023-02-12T02:44:35;97478.81;;;5.86;63.12
72395;BME280;60384;48.152;11.614;2023-02-12T02:47:44;97475.34;;;5.85;63.24
72395;BME280;60384;48.152;11.614;2023-02-12T02:50:52;97479.03;;;5.84;63.27
72395;BME280;60384;48.152;11.614;2023-02-12T02:54:00;97480.06;;;5.83;63.14
72395;BME280;60384;48.152;11.614;2023-02-12T02:57:08;97472.34;;;5.81;63.36
72395;BME280;60384;48.152;11.614;2023-02-12T03:00:15;97473.16;;;5.82;63.12
72395;BME280;60384;48.152;11.614;2023-02-12T03:03:24;97489.66;;;5.84;63.22
72395;BME280;60384;48.152;11.614;2023-02-12T03:06:33;97493.69;;;5.87;62.83
72395;BME280;60384;48.152;11.614;2023-02-12T03:09:42;97492.63;;;5.88;62.74
72395;BME280;60384;48.152;11.614;2023-02-12T03:12:50;97491.59;;;5.89;63.43
72395;BME280;60384;48.152;11.614;2023-02-12T03:15:58;97496.66;;;5.90;63.04
72395;BME280;60384;48.152;11.614;2023-02-12T03:19:07;97495.63;;;5.91;62.86
72395;BME280;60384;48.152;11.614;2023-02-12T03:22:13;97481.22;;;5.87;62.77
72395;BME280;60384;48.152;11.614;2023-02-12T03:25:20;97500.34;;;5.89;63.29
72395;BME280;60384;48.152;11.614;2023-02-12T03:28:26;97494.47;;;5.87;63.14
72395;BME280;60384;48.152;11.614;2023-02-12T03:31:34;97500.72;;;5.81;63.15
72395;BME280;60384;48.152;11.614;2023-02-12T03:34:45;97506.28;;;5.79;63.07
72395;BME280;60384;48.152;11.614;2023-02-12T03:37:54;97501.22;;;5.78;63.17
72395;BME280;60384;48.152;11.614;2023-02-12T03:41:02;97503.06;;;5.77;62.94
72395;BME280;60384;48.152;11.614;2023-02-12T03:44:10;97499.06;;;5.75;63.28
72395;BME280;60384;48.152;11.614;2023-02-12T03:47:20;97501.13;;;5.73;62.89
72395;BME280;60384;48.152;11.614;2023-02-12T03:50:29;97502.97;;;5.72;63.32
72395;BME280;60384;48.152;11.614;2023-02-12T03:53:33;97504.00;;;5.71;63.21
72395;BME280;60384;48.152;11.614;2023-02-12T03:56:37;97505.63;;;5.72;63.49
72395;BME280;60384;48.152;11.614;2023-02-12T03:59:42;97507.25;;;5.73;63.42
72395;BME280;60384;48.152;11.614;2023-02-12T04:02:45;97510.44;;;5.75;63.17
72395;BME280;60384;48.152;11.614;2023-02-12T04:05:49;97513.91;;;5.76;63.29
72395;BME280;60384;48.152;11.614;2023-02-12T04:08:51;97509.97;;;5.78;63.19
72395;BME280;60384;48.152;11.614;2023-02-12T04:12:03;97520.56;;;5.78;63.11
72395;BME280;60384;48.152;11.614;2023-02-12T04:15:22;97529.56;;;5.77;63.05
72395;BME280;60384;48.152;11.614;2023-02-12T04:18:32;97529.00;;;5.75;63.16
72395;BME280;60384;48.152;11.614;2023-02-12T04:21:52;97529.81;;;5.76;63.19
72395;BME280;60384;48.152;11.614;2023-02-12T04:25:08;97524.25;;;5.77;63.39
72395;BME280;60384;48.152;11.614;2023-02-12T04:28:23;97519.78;;;5.78;63.13
72395;BME280;60384;48.152;11.614;2023-02-12T04:31:29;97530.38;;;5.78;63.30
72395;BME280;60384;48.152;11.614;2023-02-12T04:34:37;97535.69;;;5.78;63.19
72395;BME280;60384;48.152;11.614;2023-02-12T04:37:44;97536.50;;;5.78;63.20
72395;BME280;60384;48.152;11.614;2023-02-12T04:40:49;97535.69;;;5.78;63.52
72395;BME280;60384;48.152;11.614;2023-02-12T04:43:52;97545.97;;;5.74;63.13
72395;BME280;60384;48.152;11.614;2023-02-12T04:46:54;97544.34;;;5.73;63.38
72395;BME280;60384;48.152;11.614;2023-02-12T04:49:56;97544.91;;;5.75;63.40
72395;BME280;60384;48.152;11.614;2023-02-12T04:52:59;97544.13;;;5.75;63.08
72395;BME280;60384;48.152;11.614;2023-02-12T04:56:01;97543.88;;;5.76;63.17
72395;BME280;60384;48.152;11.614;2023-02-12T04:59:03;97544.44;;;5.78;63.60
72395;BME280;60384;48.152;11.614;2023-02-12T05:02:05;97545.25;;;5.79;63.13
72395;BME280;60384;48.152;11.614;2023-02-12T05:05:07;97549.50;;;5.80;63.22
72395;BME280;60384;48.152;11.614;2023-02-12T05:08:10;97545.03;;;5.80;63.11
72395;BME280;60384;48.152;11.614;2023-02-12T05:11:12;97549.50;;;5.80;63.16
72395;BME280;60384;48.152;11.614;2023-02-12T05:14:14;97547.09;;;5.78;63.38
72395;BME280;60384;48.152;11.614;2023-02-12T05:17:16;97552.16;;;5.80;63.37
72395;BME280;60384;48.152;11.614;2023-02-12T05:20:18;97557.69;;;5.78;63.45
72395;BME280;60384;48.152;11.614;2023-02-12T05:23:21;97553.19;;;5.79;63.18
72395;BME280;60384;48.152;11.614;2023-02-12T05:26:23;97558.50;;;5.79;63.10
72395;BME280;60384;48.152;11.614;2023-02-12T05:29:25;97562.78;;;5.80;63.28
72395;BME280;60384;48.152;11.614;2023-02-12T05:32:26;97575.22;;;5.79;63.17
72395;BME280;60384;48.152;11.614;2023-02-12T05:35:28;97570.97;;;5.78;63.33
72395;BME280;60384;48.152;11.614;2023-02-12T05:38:31;97565.34;;;5.75;63.36
72395;BME280;60384;48.152;11.614;2023-02-12T05:41:33;97571.91;;;5.72;63.55
72395;BME280;60384;48.152;11.614;2023-02-12T05:44:35;97573.97;;;5.70;63.54
72395;BME280;60384;48.152;11.614;2023-02-12T05:47:37;97573.75;;;5.72;63.39
72395;BME280;60384;48.152;11.614;2023-02-12T05:50:39;97569.25;;;5.72;63.35
72395;BME280;60384;48.152;11.614;2023-02-12T05:53:43;97572.13;;;5.71;63.31
72395;BME280;60384;48.152;11.614;2023-02-12T05:56:46;97568.13;;;5.68;63.21
72395;BME280;60384;48.152;11.614;2023-02-12T05:59:48;97576.31;;;5.67;63.32
72395;BME280;60384;48.152;11.614;2023-02-12T06:02:50;97580.81;;;5.66;63.60
72395;BME280;60384;48.152;11.614;2023-02-12T06:05:52;97570.44;;;5.65;63.66
72395;BME280;60384;48.152;11.614;2023-02-12T06:08:56;97572.53;;;5.63;63.47
72395;BME280;60384;48.152;11.614;2023-02-12T06:11:58;97576.47;;;5.60;63.53
72395;BME280;60384;48.152;11.614;2023-02-12T06:15:00;97575.34;;;5.56;63.52
72395;BME280;60384;48.152;11.614;2023-02-12T06:18:03;97581.09;;;5.53;63.52
72395;BME280;60384;48.152;11.614;2023-02-12T06:21:05;97584.81;;;5.52;63.70
72395;BME280;60384;48.152;11.614;2023-02-12T06:24:09;97591.59;;;5.48;63.62
72395;BME280;60384;48.152;11.614;2023-02-12T06:27:10;97585.16;;;5.44;63.50
72395;BME280;60384;48.152;11.614;2023-02-12T06:30:13;97584.38;;;5.44;63.58
72395;BME280;60384;48.152;11.614;2023-02-12T06:33:15;97592.78;;;5.40;63.83
72395;BME280;60384;48.152;11.614;2023-02-12T06:36:17;97599.94;;;5.40;63.56
72395;BME280;60384;48.152;11.614;2023-02-12T06:39:20;97603.41;;;5.40;63.42
72395;BME280;60384;48.152;11.614;2023-02-12T06:42:22;97603.41;;;5.40;63.42
72395;BME280;60384;48.152;11.614;2023-02-12T06:45:24;97611.34;;;5.40;63.54
72395;BME280;60384;48.152;11.614;2023-02-12T06:48:26;97612.16;;;5.41;63.64
72395;BME280;60384;48.152;11.614;2023-02-12T06:51:28;97608.91;;;5.39;63.56
72395;BME280;60384;48.152;11.614;2023-02-12T06:54:32;97614.69;;;5.36;63.64
72395;BME280;60384;48.152;11.614;2023-02-12T06:57:34;97615.47;;;5.36;63.59
72395;BME280;60384;48.152;11.614;2023-02-12T07:00:35;97617.31;;;5.36;63.47
72395;BME280;60384;48.152;11.614;2023-02-12T07:03:38;97614.13;;;5.34;63.74
72395;BME280;60384;48.152;11.614;2023-02-12T07:06:40;97610.31;;;5.30;63.51
72395;BME280;60384;48.152;11.614;2023-02-12T07:09:43;97605.28;;;5.28;63.68
72395;BME280;60384;48.152;11.614;2023-02-12T07:12:45;97604.69;;;5.26;63.64
72395;BME280;60384;48.152;11.614;2023-02-12T07:15:47;97610.56;;;5.28;63.48
72395;BME280;60384;48.152;11.614;2023-02-12T07:18:49;97616.19;;;5.32;63.54
72395;BME280;60384;48.152;11.614;2023-02-12T07:21:51;97611.81;;;5.37;63.52
72395;BME280;60384;48.152;11.614;2023-02-12T07:24:54;97614.31;;;5.44;63.46
72395;BME280;60384;48.152;11.614;2023-02-12T07:27:55;97613.59;;;5.49;63.18
72395;BME280;60384;48.152;11.614;2023-02-12T07:30:57;97598.28;;;5.51;63.36
72395;BME280;60384;48.152;11.614;2023-02-12T07:34:00;97602.28;;;5.53;63.56
72395;BME280;60384;48.152;11.614;2023-02-12T07:37:02;97598.38;;;5.56;63.44
72395;BME280;60384;48.152;11.614;2023-02-12T07:40:07;97595.59;;;5.62;63.15
72395;BME280;60384;48.152;11.614;2023-02-12T07:43:09;97597.53;;;5.67;63.17
72395;BME280;60384;48.152;11.614;2023-02-12T07:46:15;97597.38;;;5.73;63.17
72395;BME280;60384;48.152;11.614;2023-02-12T07:49:19;97597.47;;;5.78;63.00
72395;BME280;60384;48.152;11.614;2023-02-12T07:52:21;97594.91;;;5.83;63.08
72395;BME280;60384;48.152;11.614;2023-02-12T07:55:24;97593.41;;;5.88;62.98
72395;BME280;60384;48.152;11.614;2023-02-12T07:58:26;97593.75;;;5.91;62.85
72395;BME280;60384;48.152;11.614;2023-02-12T08:01:29;97601.22;;;5.94;63.09
72395;BME280;60384;48.152;11.614;2023-02-12T08:04:31;97594.38;;;5.98;63.35
72395;BME280;60384;48.152;11.614;2023-02-12T08:07:33;97599.47;;;6.00;63.24
72395;BME280;60384;48.152;11.614;2023-02-12T08:10:36;97598.19;;;6.02;63.10
72395;BME280;60384;48.152;11.614;2023-02-12T08:13:38;97601.16;;;6.06;62.76
72395;BME280;60384;48.152;11.614;2023-02-12T08:16:40;97602.28;;;6.10;63.02
72395;BME280;60384;48.152;11.614;2023-02-12T08:19:42;97597.56;;;6.12;62.63
72395;BME280;60384;48.152;11.614;2023-02-12T08:22:44;97595.22;;;6.15;62.99
72395;BME280;60384;48.152;11.614;2023-02-12T08:25:47;97601.91;;;6.18;63.33
72395;BME280;60384;48.152;11.614;2023-02-12T08:28:51;97598.75;;;6.21;63.10
72395;BME280;60384;48.152;11.614;2023-02-12T08:31:55;97599.56;;;6.21;63.12
72395;BME280;60384;48.152;11.614;2023-02-12T08:34:57;97600.13;;;6.23;63.13
72395;BME280;60384;48.152;11.614;2023-02-12T08:37:59;97587.66;;;6.24;63.00
72395;BME280;60384;48.152;11.614;2023-02-12T08:41:03;97586.88;;;6.23;62.93
72395;BME280;60384;48.152;11.614;2023-02-12T08:44:05;97586.88;;;6.23;63.30
72395;BME280;60384;48.152;11.614;2023-02-12T08:47:07;97590.91;;;6.26;63.23
72395;BME280;60384;48.152;11.614;2023-02-12T08:50:09;97592.81;;;6.31;63.06
72395;BME280;60384;48.152;11.614;2023-02-12T08:53:11;97593.13;;;6.34;62.78
72395;BME280;60384;48.152;11.614;2023-02-12T08:56:16;97588.94;;;6.38;62.63
72395;BME280;60384;48.152;11.614;2023-02-12T08:59:18;97592.16;;;6.40;63.43
72395;BME280;60384;48.152;11.614;2023-02-12T09:02:20;97585.31;;;6.44;62.89
72395;BME280;60384;48.152;11.614;2023-02-12T09:05:21;97590.69;;;6.49;62.50
72395;BME280;60384;48.152;11.614;2023-02-12T09:08:23;97596.66;;;6.56;62.73
72395;BME280;60384;48.152;11.614;2023-02-12T09:11:28;97593.03;;;6.62;62.51
72395;BME280;60384;48.152;11.614;2023-02-12T09:14:30;97588.81;;;6.67;62.92
72395;BME280;60384;48.152;11.614;2023-02-12T09:17:32;97597.44;;;6.74;63.00
72395;BME280;60384;48.152;11.614;2023-02-12T09:20:36;97602.88;;;6.84;62.46
72395;BME280;60384;48.152;11.614;2023-02-12T09:23:39;97602.72;;;6.90;62.97
72395;BME280;60384;48.152;11.614;2023-02-12T09:26:42;97598.03;;;6.97;62.60
72395;BME280;60384;48.152;11.614;2023-02-12T09:29:44;97596.00;;;7.04;62.29
72395;BME280;60384;48.152;11.614;2023-02-12T09:32:45;97603.00;;;7.11;62.12
72395;BME280;60384;48.152;11.614;2023-02-12T09:35:47;97603.88;;;7.16;63.08
72395;BME280;60384;48.152;11.614;2023-02-12T09:38:49;97601.84;;;7.23;62.84
72395;BME280;60384;48.152;11.614;2023-02-12T09:42:14;97593.13;;;7.28;62.96
72395;BME280;60384;48.152;11.614;2023-02-12T09:45:22;97601.63;;;7.30;61.95
72395;BME280;60384;48.152;11.614;2023-02-12T09:48:38;97603.63;;;7.39;62.59
72395;BME280;60384;48.152;11.614;2023-02-12T09:51:48;97599.22;;;7.50;61.69
72395;BME280;60384;48.152;11.614;2023-02-12T09:54:54;97598.03;;;7.63;62.09
72395;BME280;60384;48.152;11.614;2023-02-12T09:58:00;97598.94;;;7.73;61.56
72395;BME280;60384;48.152;11.614;2023-02-12T10:01:09;97604.31;;;7.78;61.59
72395;BME280;60384;48.152;11.614;2023-02-12T10:04:11;97604.94;;;7.85;62.82
72395;BME280;60384;48.152;11.614;2023-02-12T10:07:19;97602.66;;;7.99;61.66
72395;BME280;60384;48.152;11.614;2023-02-12T10:10:35;97605.16;;;8.11;62.44
72395;BME280;60384;48.152;11.614;2023-02-12T10:13:47;97600.47;;;8.23;61.98
72395;BME280;60384;48.152;11.614;2023-02-12T10:17:02;97602.94;;;8.29;61.86
72395;BME280;60384;48.152;11.614;2023-02-12T10:23:53;97590.19;;;8.32;62.19
72395;BME280;60384;48.152;11.614;2023-02-12T10:27:03;97602.47;;;8.38;62.04
72395;BME280;60384;48.152;11.614;2023-02-12T10:30:17;97598.81;;;8.44;61.35
72395;BME280;60384;48.152;11.614;2023-02-12T10:33:25;97605.22;;;8.43;62.42
72395;BME280;60384;48.152;11.614;2023-02-12T10:36:37;97606.72;;;8.34;61.64
72395;BME280;60384;48.152;11.614;2023-02-12T10:39:42;97606.16;;;8.32;62.12
72395;BME280;60384;48.152;11.614;2023-02-12T10:42:49;97601.09;;;8.30;61.87
72395;BME280;60384;48.152;11.614;2023-02-12T10:45:54;97602.63;;;8.26;62.19
72395;BME280;60384;48.152;11.614;2023-02-12T10:48:57;97602.13;;;8.29;63.10
72395;BME280;60384;48.152;11.614;2023-02-12T10:52:07;97605.84;;;8.28;62.83
72395;BME280;60384;48.152;11.614;2023-02-12T10:55:26;97596.06;;;8.34;61.97
72395;BME280;60384;48.152;11.614;2023-02-12T10:58:29;97602.44;;;8.33;62.43
72395;BME280;60384;48.152;11.614;2023-02-12T11:01:34;97597.69;;;8.35;62.51
72395;BME280;60384;48.152;11.614;2023-02-12T11:04:37;97599.28;;;8.36;62.06
72395;BME280;60384;48.152;11.614;2023-02-12T11:07:46;97600.91;;;8.37;62.50
72395;BME280;60384;48.152;11.614;2023-02-12T11:10:48;97600.91;;;8.37;62.31
72395;BME280;60384;48.152;11.614;2023-02-12T11:13:53;97597.72;;;8.40;62.97
72395;BME280;60384;48.152;11.614;2023-02-12T11:16:59;97589.50;;;8.46;62.16
72395;BME280;60384;48.152;11.614;2023-02-12T11:20:18;97597.09;;;8.64;61.93
72395;BME280;60384;48.152;11.614;2023-02-12T11:23:23;97588.94;;;9.33;60.89
72395;BME280;60384;48.152;11.614;2023-02-12T11:26:27;97579.94;;;9.49;60.37
72395;BME280;60384;48.152;11.614;2023-02-12T11:29:29;97572.78;;;9.70;60.43
72395;BME280;60384;48.152;11.614;2023-02-12T11:32:35;97574.47;;;10.37;59.89
72395;BME280;60384;48.152;11.614;2023-02-12T11:35:47;97572.06;;;10.51;59.07
72395;BME280;60384;48.152;11.614;2023-02-12T11:38:52;97577.38;;;10.86;59.63
72395;BME280;60384;48.152;11.614;2023-02-12T11:41:56;97567.69;;;11.10;57.99
72395;BME280;60384;48.152;11.614;2023-02-12T11:44:58;97572.22;;;11.15;59.20
72395;BME280;60384;48.152;11.614;2023-02-12T11:48:11;97568.19;;;11.17;59.41
72395;BME280;60384;48.152;11.614;2023-02-12T11:51:18;97565.47;;;11.33;58.71
72395;BME280;60384;48.152;11.614;2023-02-12T11:54:26;97567.25;;;11.47;59.42
72395;BME280;60384;48.152;11.614;2023-02-12T11:57:36;97558.75;;;12.28;57.43
72395;BME280;60384;48.152;11.614;2023-02-12T12:00:43;97556.53;;;13.17;56.21
72395;BME280;60384;48.152;11.614;2023-02-12T12:03:53;97544.44;;;14.97;53.02
72395;BME280;60384;48.152;11.614;2023-02-12T12:07:01;97537.22;;;15.96;52.17
72395;BME280;60384;48.152;11.614;2023-02-12T12:10:13;97534.75;;;16.67;51.85
72395;BME280;60384;48.152;11.614;2023-02-12T12:13:21;97536.72;;;17.14;51.57
72395;BME280;60384;48.152;11.614;2023-02-12T12:16:30;97530.16;;;17.07;52.39
72395;BME280;60384;48.152;11.614;2023-02-12T12:19:58;97531.84;;;16.63;53.60
72395;BME280;60384;48.152;11.614;2023-02-12T12:23:06;97528.78;;;16.78;53.77
72395;BME280;60384;48.152;11.614;2023-02-12T12:26:19;97534.09;;;17.01;54.08
72395;BME280;60384;48.152;11.614;2023-02-12T12:29:26;97528.56;;;17.06;54.44
72395;BME280;60384;48.152;11.614;2023-02-12T12:32:35;97529.50;;;17.01;55.05
72395;BME280;60384;48.152;11.614;2023-02-12T12:35:46;97525.94;;;16.83;55.69
72395;BME280;60384;48.152;11.614;2023-02-12T12:38:55;97521.00;;;16.54;56.46
72395;BME280;60384;48.152;11.614;2023-02-12T12:42:22;97516.88;;;16.35;56.70
72395;BME280;60384;48.152;11.614;2023-02-12T12:45:49;97517.28;;;16.20;57.04
72395;BME280;60384;48.152;11.614;2023-02-12T12:56:15;97519.69;;;14.81;59.68
72395;BME280;60384;48.152;11.614;2023-02-12T12:59:44;97528.63;;;14.30;60.27
72395;BME280;60384;48.152;11.614;2023-02-12T13:06:40;97528.53;;;13.47;60.71
72395;BME280;60384;48.152;11.614;2023-02-12T13:10:12;97528.34;;;13.19;61.03
72395;BME280;60384;48.152;11.614;2023-02-12T13:13:21;97525.63;;;12.96;61.28
72395;BME280;60384;48.152;11.614;2023-02-12T13:16:29;97522.97;;;12.96;61.00
72395;BME280;60384;48.152;11.614;2023-02-12T13:19:43;97523.22;;;12.94;60.76
72395;BME280;60384;48.152;11.614;2023-02-12T13:22:51;97524.53;;;12.73;61.28
72395;BME280;60384;48.152;11.614;2023-02-12T13:26:03;97521.34;;;12.71;61.30
72395;BME280;60384;48.152;11.614;2023-02-12T13:29:14;97522.34;;;12.80;60.44
72395;BME280;60384;48.152;11.614;2023-02-12T13:32:22;97524.03;;;12.95;60.54
72395;BME280;60384;48.152;11.614;2023-02-12T13:35:28;97525.47;;;12.87;60.80
72395;BME280;60384;48.152;11.614;2023-02-12T13:38:33;97519.13;;;12.78;60.66
72395;BME280;60384;48.152;11.614;2023-02-12T13:41:39;97527.69;;;12.80;60.62
72395;BME280;60384;48.152;11.614;2023-02-12T13:44:53;97515.91;;;12.76;60.79
72395;BME280;60384;48.152;11.614;2023-02-12T13:48:18;97513.81;;;12.73;60.99
72395;BME280;60384;48.152;11.614;2023-02-12T13:51:29;97518.03;;;12.55;61.45
72395;BME280;60384;48.152;11.614;2023-02-12T13:54:43;97511.44;;;12.42;61.14
72395;BME280;60384;48.152;11.614;2023-02-12T14:01:43;97503.63;;;12.17;61.27
72395;BME280;60384;48.152;11.614;2023-02-12T14:04:53;97503.75;;;12.02;61.35
72395;BME280;60384;48.152;11.614;2023-02-12T14:07:58;97503.03;;;11.91;61.67
72395;BME280;60384;48.152;11.614;2023-02-12T14:11:03;97506.00;;;11.90;62.19
72395;BME280;60384;48.152;11.614;2023-02-12T14:14:05;97510.25;;;11.91;61.56
72395;BME280;60384;48.152;11.614;2023-02-12T14:17:50;97508.91;;;11.93;61.82
72395;BME280;60384;48.152;11.614;2023-02-12T14:24:48;97510.81;;;11.88;61.94
72395;BME280;60384;48.152;11.614;2023-02-12T14:27:51;97507.56;;;11.96;61.70
72395;BME280;60384;48.152;11.614;2023-02-12T14:31:28;97503.25;;;12.00;61.58
72395;BME280;60384;48.152;11.614;2023-02-12T14:34:40;97513.69;;;12.02;61.77
72395;BME280;60384;48.152;11.614;2023-02-12T14:37:42;97501.63;;;11.99;60.82
72395;BME280;60384;48.152;11.614;2023-02-12T14:40:45;97515.59;;;11.96;61.64
72395;BME280;60384;48.152;11.614;2023-02-12T14:43:47;97507.88;;;11.89;61.24
72395;BME280;60384;48.152;11.614;2023-02-12T14:47:11;97501.50;;;11.80;61.42
72395;BME280;60384;48.152;11.614;2023-02-12T14:50:19;97500.47;;;11.71;61.56
72395;BME280;60384;48.152;11.614;2023-02-12T14:53:26;97507.78;;;11.60;61.96
72395;BME280;60384;48.152;11.614;2023-02-12T14:56:36;97510.53;;;11.45;61.78
72395;BME280;60384;48.152;11.614;2023-02-12T14:59:43;97510.88;;;11.29;62.02
72395;BME280;60384;48.152;11.614;2023-02-12T15:02:50;97512.28;;;11.11;60.95
72395;BME280;60384;48.152;11.614;2023-02-12T15:06:00;97514.00;;;10.92;62.78
72395;BME280;60384;48.152;11.614;2023-02-12T15:09:08;97501.47;;;10.72;62.33
72395;BME280;60384;48.152;11.614;2023-02-12T15:12:16;97502.84;;;10.54;62.72
72395;BME280;60384;48.152;11.614;2023-02-12T15:15:23;97501.03;;;10.40;62.43
72395;BME280;60384;48.152;11.614;2023-02-12T15:18:41;97498.88;;;10.31;62.86
72395;BME280;60384;48.152;11.614;2023-02-12T15:21:46;97502.91;;;10.24;62.74
72395;BME280;60384;48.152;11.614;2023-02-12T15:24:48;97495.66;;;10.09;62.51
72395;BME280;60384;48.152;11.614;2023-02-12T15:27:53;97497.03;;;9.97;62.95
72395;BME280;60384;48.152;11.614;2023-02-12T15:30:55;97491.66;;;9.86;62.81
72395;BME280;60384;48.152;11.614;2023-02-12T15:33:59;97491.41;;;9.78;62.92
72395;BME280;60384;48.152;11.614;2023-02-12T15:37:04;97501.78;;;9.69;62.89
72395;BME280;60384;48.152;11.614;2023-02-12T15:40:13;97488.19;;;9.61;62.80
72395;BME280;60384;48.152;11.614;2023-02-12T15:43:17;97501.78;;;9.49;62.96
72395;BME280;60384;48.152;11.614;2023-02-12T15:46:18;97493.22;;;9.37;62.69
72395;BME280;60384;48.152;11.614;2023-02-12T15:49:26;97496.13;;;9.30;62.87
72395;BME280;60384;48.152;11.614;2023-02-12T15:52:32;97499.03;;;9.24;63.05
72395;BME280;60384;48.152;11.614;2023-02-12T15:55:38;97491.03;;;9.19;62.89
72395;BME280;60384;48.152;11.614;2023-02-12T15:58:46;97493.13;;;9.11;62.75
72395;BME280;60384;48.152;11.614;2023-02-12T16:01:53;97488.88;;;9.05;62.98
72395;BME280;60384;48.152;11.614;2023-02-12T16:04:57;97492.56;;;8.99;63.04
72395;BME280;60384;48.152;11.614;2023-02-12T16:08:00;97495.72;;;8.91;63.23
72395;BME280;60384;48.152;11.614;2023-02-12T16:11:03;97492.50;;;8.84;62.92
72395;BME280;60384;48.152;11.614;2023-02-12T16:14:18;97493.81;;;8.77;63.41
72395;BME280;60384;48.152;11.614;2023-02-12T16:17:25;97490.56;;;8.64;63.56
72395;BME280;60384;48.152;11.614;2023-02-12T16:20:29;97492.38;;;8.54;62.84
72395;BME280;60384;48.152;11.614;2023-02-12T16:23:33;97492.84;;;8.46;63.86
72395;BME280;60384;48.152;11.614;2023-02-12T16:26:35;97501.28;;;8.38;62.81
72395;BME280;60384;48.152;11.614;2023-02-12T16:29:43;97495.88;;;8.27;63.30
72395;BME280;60384;48.152;11.614;2023-02-12T16:32:46;97497.94;;;8.20;63.90
72395;BME280;60384;48.152;11.614;2023-02-12T16:35:59;97500.59;;;8.15;63.81
72395;BME280;60384;48.152;11.614;2023-02-12T16:39:04;97502.69;;;8.08;63.96
72395;BME280;60384;48.152;11.614;2023-02-12T16:42:14;97509.03;;;8.02;63.43
72395;BME280;60384;48.152;11.614;2023-02-12T16:45:35;97518.81;;;7.97;63.61
72395;BME280;60384;48.152;11.614;2023-02-12T16:48:38;97520.38;;;7.93;63.95